createdAt,value
2023-10-29T00:00:56.541Z,9.430338
2023-10-29T00:01:56.612Z,9.430328
2023-10-29T00:02:56.546Z,9.430307
2023-10-29T00:03:56.581Z,9.430268
2023-10-29T00:04:56.461Z,9.430313
2023-10-29T00:05:56.463Z,9.430360
2023-10-29T00:06:56.397Z,9.430309
2023-10-29T00:07:56.428Z,9.430367
2023-10-29T00:08:56.423Z,9.430354
2023-10-29T00:09:56.350Z,9.430361
2023-10-29T00:10:57.370Z,9.430358
2023-10-29T00:11:56.354Z,9.430304
2023-10-29T00:12:57.953Z,9.430352
2023-10-29T00:13:56.362Z,9.430346
2023-10-29T00:14:56.499Z,9.430327
2023-10-29T00:15:56.907Z,9.430408
2023-10-29T00:16:57.639Z,9.430295
2023-10-29T00:17:58.600Z,9.430324
2023-10-29T00:18:58.796Z,9.430309
2023-10-29T00:19:56.588Z,9.430298
2023-10-29T00:20:57.581Z,9.430342
2023-10-29T00:21:58.420Z,9.430286
2023-10-29T00:22:56.956Z,9.430293
2023-10-29T00:23:59.307Z,9.430371
2023-10-29T00:24:56.375Z,9.430338
2023-10-29T00:25:58.447Z,9.430348
2023-10-29T00:26:56.848Z,9.430312
2023-10-29T00:27:56.165Z,9.430306
2023-10-29T00:28:56.377Z,9.430306
2023-10-29T00:29:56.413Z,9.430325
2023-10-29T00:30:57.311Z,9.430321
2023-10-29T00:31:58.292Z,9.430298
2023-10-29T00:33:01.375Z,9.430314
2023-10-29T00:33:57.377Z,9.430299
2023-10-29T00:34:57.615Z,9.430324
2023-10-29T00:35:57.603Z,9.430300
2023-10-29T00:36:57.367Z,9.430303
2023-10-29T00:37:57.210Z,9.430295
2023-10-29T00:38:57.194Z,9.430310
2023-10-29T00:39:58.551Z,9.430305
2023-10-29T00:40:56.335Z,9.430306
2023-10-29T00:41:57.987Z,9.430339
2023-10-29T00:42:57.021Z,9.430333
2023-10-29T00:43:57.054Z,9.430315
2023-10-29T00:44:56.309Z,9.430313
2023-10-29T00:45:56.085Z,9.430320
2023-10-29T00:46:56.079Z,9.430326
2023-10-29T00:47:56.030Z,9.430310
2023-10-29T00:48:56.111Z,9.430341
2023-10-29T00:49:56.013Z,9.430308
2023-10-29T00:50:56.222Z,9.430344
2023-10-29T00:51:56.379Z,9.430356
2023-10-29T00:52:57.069Z,9.430324
2023-10-29T00:53:55.989Z,9.430334
2023-10-29T00:54:56.076Z,9.430294
2023-10-29T00:55:56.023Z,9.430328
2023-10-29T00:56:56.720Z,9.430294
2023-10-29T00:57:55.917Z,9.430300
2023-10-29T00:58:56.105Z,9.430288
2023-10-29T00:59:56.015Z,9.430282
2023-10-29T01:00:57.554Z,9.430295
2023-10-29T01:01:56.059Z,9.430358
2023-10-29T01:02:55.960Z,9.430335
2023-10-29T01:03:56.136Z,9.430344
2023-10-29T01:04:55.866Z,9.430330
2023-10-29T01:05:56.257Z,9.430319
2023-10-29T01:06:56.565Z,9.430312
2023-10-29T01:07:56.008Z,9.430387
2023-10-29T01:08:55.823Z,9.430408
2023-10-29T01:09:56.925Z,9.430382
2023-10-29T01:10:56.777Z,9.430346
2023-10-29T01:11:55.820Z,9.430319
2023-10-29T01:12:56.733Z,9.430369
2023-10-29T01:13:59.002Z,9.430412
2023-10-29T01:14:55.766Z,9.430444
2023-10-29T01:15:56.358Z,9.430481
2023-10-29T01:16:55.713Z,9.430433
2023-10-29T01:17:55.804Z,9.430373
2023-10-29T01:18:58.742Z,9.430389
2023-10-29T01:19:58.968Z,9.430404
2023-10-29T01:20:55.706Z,9.430436
2023-10-29T01:21:55.626Z,9.430334
2023-10-29T01:22:57.620Z,9.430376
2023-10-29T01:23:55.812Z,9.430346
2023-10-29T01:24:56.646Z,9.430346
2023-10-29T01:25:55.670Z,9.430354
2023-10-29T01:26:55.682Z,9.430328
2023-10-29T01:27:57.834Z,9.430322
2023-10-29T01:28:55.636Z,9.430325
2023-10-29T01:29:55.629Z,9.430328
2023-10-29T01:30:55.533Z,9.430310
2023-10-29T01:31:55.563Z,9.430309
2023-10-29T01:32:55.650Z,9.430315
2023-10-29T01:33:55.700Z,9.430314
2023-10-29T01:34:55.511Z,9.430387
2023-10-29T01:35:55.486Z,9.430368
2023-10-29T01:36:57.976Z,9.430376
2023-10-29T01:37:56.479Z,9.430335
2023-10-29T01:38:55.476Z,9.430343
2023-10-29T01:39:55.447Z,9.430329
2023-10-29T01:40:55.456Z,9.430347
2023-10-29T01:41:55.488Z,9.430342
2023-10-29T01:42:55.739Z,9.430338
2023-10-29T01:43:55.467Z,9.430326
2023-10-29T01:44:55.468Z,9.430330
2023-10-29T01:45:55.429Z,9.430347
2023-10-29T01:46:55.371Z,9.430336
2023-10-29T01:47:55.477Z,9.430343
2023-10-29T01:48:55.435Z,9.430363
2023-10-29T01:49:55.343Z,9.430388
2023-10-29T01:50:55.468Z,9.430394
2023-10-29T01:51:55.330Z,9.430340
2023-10-29T01:52:55.318Z,9.430396
2023-10-29T01:53:55.996Z,9.430392
2023-10-29T01:54:55.307Z,9.430356
2023-10-29T01:55:55.330Z,9.430384
2023-10-29T01:56:55.345Z,9.430416
2023-10-29T01:57:55.289Z,9.430402
2023-10-29T01:58:55.252Z,9.430387
2023-10-29T01:59:55.368Z,9.430310
2023-10-29T02:00:55.264Z,9.430346
2023-10-29T02:01:57.293Z,9.430380
2023-10-29T02:02:55.434Z,9.430398
2023-10-29T02:03:55.311Z,9.430346
2023-10-29T02:04:55.204Z,9.430385
2023-10-29T02:05:55.358Z,9.430374
2023-10-29T02:06:55.198Z,9.430382
2023-10-29T02:07:55.152Z,9.430342
2023-10-29T02:08:55.231Z,9.430405
2023-10-29T02:09:55.156Z,9.430373
2023-10-29T02:10:55.146Z,9.430379
2023-10-29T02:11:55.183Z,9.430393
2023-10-29T02:12:55.112Z,9.430412
2023-10-29T02:13:56.154Z,9.430405
2023-10-29T02:14:55.147Z,9.430379
2023-10-29T02:15:55.130Z,9.430390
2023-10-29T02:16:55.118Z,9.430453
2023-10-29T02:17:55.092Z,9.430474
2023-10-29T02:18:55.102Z,9.430474
2023-10-29T02:19:55.082Z,9.430474
2023-10-29T02:20:55.104Z,9.430460
2023-10-29T02:21:55.318Z,9.430431
2023-10-29T02:22:55.128Z,9.430460
2023-10-29T02:23:55.049Z,9.430414
2023-10-29T02:24:55.065Z,9.430406
2023-10-29T02:25:55.018Z,9.430420
2023-10-29T02:26:55.073Z,9.430415
2023-10-29T02:27:55.127Z,9.430400
2023-10-29T02:28:55.041Z,9.430367
2023-10-29T02:29:55.038Z,9.430327
2023-10-29T02:30:54.965Z,9.430428
2023-10-29T02:31:54.937Z,9.430533
2023-10-29T02:32:56.091Z,9.430347
2023-10-29T02:33:55.121Z,9.430636
2023-10-29T02:34:54.940Z,9.430548
2023-10-29T02:35:54.964Z,9.430418
2023-10-29T02:36:54.951Z,9.430372
2023-10-29T02:37:55.089Z,9.430358
2023-10-29T02:38:54.905Z,9.430395
2023-10-29T02:39:54.907Z,9.430412
2023-10-29T02:40:54.850Z,9.430327
2023-10-29T02:41:54.888Z,9.430441
2023-10-29T02:42:54.851Z,9.430453
2023-10-29T02:43:54.844Z,9.430475
2023-10-29T02:44:54.836Z,9.430439
2023-10-29T02:45:55.037Z,9.430373
2023-10-29T02:46:54.827Z,9.430340
2023-10-29T02:47:54.876Z,9.430357
2023-10-29T02:48:54.886Z,9.430408
2023-10-29T02:49:55.783Z,9.430377
2023-10-29T02:50:54.828Z,9.430346
2023-10-29T02:51:54.760Z,9.430345
2023-10-29T02:52:54.852Z,9.430341
2023-10-29T02:53:54.759Z,9.430392
2023-10-29T02:54:54.750Z,9.430411
2023-10-29T02:55:54.688Z,9.430399
2023-10-29T02:56:54.735Z,9.430425
2023-10-29T02:57:54.700Z,9.430397
2023-10-29T02:58:54.772Z,9.430398
2023-10-29T02:59:54.725Z,9.430408
2023-10-29T03:00:54.650Z,9.430468
2023-10-29T03:01:54.677Z,9.430459
2023-10-29T03:02:54.677Z,9.430463
2023-10-29T03:03:55.798Z,9.430468
2023-10-29T03:04:54.589Z,9.430464
2023-10-29T03:05:57.328Z,9.430427
2023-10-29T03:06:55.684Z,9.430354
2023-10-29T03:07:54.582Z,9.430392
2023-10-29T03:08:54.604Z,9.430437
2023-10-29T03:09:54.599Z,9.430395
2023-10-29T03:10:54.537Z,9.430388
2023-10-29T03:11:54.584Z,9.430408
2023-10-29T03:12:54.525Z,9.430342
2023-10-29T03:13:54.545Z,9.430430
2023-10-29T03:14:54.593Z,9.430419
2023-10-29T03:15:54.548Z,9.430410
2023-10-29T03:16:54.540Z,9.430396
2023-10-29T03:17:54.545Z,9.430362
2023-10-29T03:18:54.471Z,9.430390
2023-10-29T03:19:54.508Z,9.430388
2023-10-29T03:20:54.550Z,9.430392
2023-10-29T03:21:54.442Z,9.430440
2023-10-29T03:22:54.430Z,9.430410
2023-10-29T03:23:54.450Z,9.430397
2023-10-29T03:24:54.596Z,9.430302
2023-10-29T03:25:54.411Z,9.430353
2023-10-29T03:26:54.397Z,9.430406
2023-10-29T03:27:54.371Z,9.430366
2023-10-29T03:28:54.353Z,9.430369
2023-10-29T03:29:54.454Z,9.430408
2023-10-29T03:30:54.376Z,9.430390
2023-10-29T03:31:54.461Z,9.430389
2023-10-29T03:32:54.336Z,9.430357
2023-10-29T03:33:54.319Z,9.430415
2023-10-29T03:34:54.345Z,9.430412
2023-10-29T03:35:54.315Z,9.430338
2023-10-29T03:36:54.280Z,9.430300
2023-10-29T03:37:54.264Z,9.430312
2023-10-29T03:38:54.293Z,9.430365
2023-10-29T03:39:54.324Z,9.430402
2023-10-29T03:40:54.243Z,9.430403
2023-10-29T03:41:54.246Z,9.430455
2023-10-29T03:42:54.247Z,9.430401
2023-10-29T03:43:54.203Z,9.430401
2023-10-29T03:44:54.225Z,9.430379
2023-10-29T03:45:54.236Z,9.430370
2023-10-29T03:46:54.203Z,9.430367
2023-10-29T03:47:54.224Z,9.430380
2023-10-29T03:48:54.958Z,9.430374
2023-10-29T03:49:54.139Z,9.430365
2023-10-29T03:50:54.182Z,9.430379
2023-10-29T03:51:54.167Z,9.430367
2023-10-29T03:52:54.128Z,9.430434
2023-10-29T03:53:54.147Z,9.430487
2023-10-29T03:54:54.106Z,9.430402
2023-10-29T03:55:54.084Z,9.430387
2023-10-29T03:56:54.132Z,9.430386
2023-10-29T03:57:54.132Z,9.430344
2023-10-29T03:58:54.157Z,9.430367
2023-10-29T03:59:54.095Z,9.430381
2023-10-29T04:00:54.070Z,9.430316
2023-10-29T04:01:54.055Z,9.430378
2023-10-29T04:02:54.053Z,9.430405
2023-10-29T04:03:54.087Z,9.430462
2023-10-29T04:05:08.158Z,9.430492
2023-10-29T04:05:56.082Z,9.430480
2023-10-29T04:06:53.972Z,9.430452
2023-10-29T04:07:53.971Z,9.430388
2023-10-29T04:08:54.179Z,9.430388
2023-10-29T04:09:53.956Z,9.430507
2023-10-29T04:10:54.115Z,9.430560
2023-10-29T04:11:55.886Z,9.430499
2023-10-29T04:12:53.906Z,9.430502
2023-10-29T04:13:53.939Z,9.430417
2023-10-29T04:14:53.973Z,9.430429
2023-10-29T04:15:53.887Z,9.430457
2023-10-29T04:16:53.871Z,9.430439
2023-10-29T04:17:53.915Z,9.430421
2023-10-29T04:18:53.891Z,9.430371
2023-10-29T04:19:53.858Z,9.430290
2023-10-29T04:20:53.920Z,9.430344
2023-10-29T04:21:53.901Z,9.430320
2023-10-29T04:22:53.875Z,9.430288
2023-10-29T04:23:53.928Z,9.430360
2023-10-29T04:24:53.792Z,9.430408
2023-10-29T04:25:53.910Z,9.430390
2023-10-29T04:26:53.910Z,9.430382
2023-10-29T04:27:53.838Z,9.430327
2023-10-29T04:28:54.192Z,9.430346
2023-10-29T04:29:53.869Z,9.430365
2023-10-29T04:30:53.825Z,9.430352
2023-10-29T04:31:54.615Z,9.430425
2023-10-29T04:32:54.168Z,9.430404
2023-10-29T04:33:53.756Z,9.430381
2023-10-29T04:34:53.762Z,9.430397
2023-10-29T04:35:55.099Z,9.430417
2023-10-29T04:36:53.682Z,9.430380
2023-10-29T04:37:53.700Z,9.430329
2023-10-29T04:38:53.783Z,9.430335
2023-10-29T04:39:54.455Z,9.430351
2023-10-29T04:40:53.888Z,9.430347
2023-10-29T04:41:53.916Z,9.430333
2023-10-29T04:42:53.655Z,9.430360
2023-10-29T04:43:53.602Z,9.430353
2023-10-29T04:44:53.625Z,9.430302
2023-10-29T04:45:53.672Z,9.430367
2023-10-29T04:46:53.664Z,9.430348
2023-10-29T04:47:53.639Z,9.430346
2023-10-29T04:48:53.552Z,9.430327
2023-10-29T04:49:53.557Z,9.430387
2023-10-29T04:50:54.110Z,9.430419
2023-10-29T04:51:53.528Z,9.430413
2023-10-29T04:52:53.677Z,9.430473
2023-10-29T04:53:53.596Z,9.430415
2023-10-29T04:54:53.860Z,9.430371
2023-10-29T04:55:53.895Z,9.430353
2023-10-29T04:56:54.611Z,9.430333
2023-10-29T04:57:53.440Z,9.430345
2023-10-29T04:58:53.478Z,9.430392
2023-10-29T04:59:53.549Z,9.430331
2023-10-29T05:00:53.430Z,9.430341
2023-10-29T05:01:53.627Z,9.430320
2023-10-29T05:02:53.668Z,9.430369
2023-10-29T05:03:53.980Z,9.430383
2023-10-29T05:04:54.959Z,9.430374
2023-10-29T05:05:53.462Z,9.430360
2023-10-29T05:06:53.412Z,9.430393
2023-10-29T05:07:53.350Z,9.430385
2023-10-29T05:08:53.394Z,9.430383
2023-10-29T05:09:53.358Z,9.430381
2023-10-29T05:10:53.325Z,9.430407
2023-10-29T05:11:53.360Z,9.430364
2023-10-29T05:12:53.913Z,9.430379
2023-10-29T05:13:53.712Z,9.430379
2023-10-29T05:14:53.343Z,9.430371
2023-10-29T05:15:53.343Z,9.430376
2023-10-29T05:16:53.321Z,9.430385
2023-10-29T05:17:53.411Z,9.430357
2023-10-29T05:18:53.273Z,9.430389
2023-10-29T05:19:53.258Z,9.430403
2023-10-29T05:20:53.291Z,9.430404
2023-10-29T05:21:53.277Z,9.430372
2023-10-29T05:22:53.242Z,9.430386
2023-10-29T05:23:53.277Z,9.430398
2023-10-29T05:24:53.222Z,9.430354
2023-10-29T05:25:53.225Z,9.430343
2023-10-29T05:26:53.298Z,9.430346
2023-10-29T05:27:53.247Z,9.430383
2023-10-29T05:28:53.170Z,9.430375
2023-10-29T05:29:53.262Z,9.430336
2023-10-29T05:30:53.205Z,9.430330
2023-10-29T05:31:53.167Z,9.430338
2023-10-29T05:32:53.165Z,9.430344
2023-10-29T05:33:53.136Z,9.430355
2023-10-29T05:34:53.133Z,9.430341
2023-10-29T05:35:53.175Z,9.430340
2023-10-29T05:36:53.098Z,9.430357
2023-10-29T05:37:53.142Z,9.430393
2023-10-29T05:38:53.251Z,9.430369
2023-10-29T05:39:53.107Z,9.430362
2023-10-29T05:40:53.844Z,9.430352
2023-10-29T05:41:53.102Z,9.430359
2023-10-29T05:42:53.197Z,9.430366
2023-10-29T05:43:53.012Z,9.430369
2023-10-29T05:44:54.165Z,9.430352
2023-10-29T05:45:53.006Z,9.430355
2023-10-29T05:46:53.609Z,9.430347
2023-10-29T05:47:53.099Z,9.430365
2023-10-29T05:48:52.952Z,9.430330
2023-10-29T05:49:52.988Z,9.430354
2023-10-29T05:50:52.963Z,9.430385
2023-10-29T05:51:52.926Z,9.430368
2023-10-29T05:52:52.921Z,9.430363
2023-10-29T05:53:53.078Z,9.430362
2023-10-29T05:54:52.905Z,9.430355
2023-10-29T05:55:54.425Z,9.430382
2023-10-29T05:56:53.138Z,9.430377
2023-10-29T05:57:52.869Z,9.430370
2023-10-29T05:58:52.862Z,9.430359
2023-10-29T05:59:52.940Z,9.430384
2023-10-29T06:00:52.947Z,9.430392
2023-10-29T06:01:52.826Z,9.430387
2023-10-29T06:02:52.947Z,9.430359
2023-10-29T06:03:53.581Z,9.430390
2023-10-29T06:04:52.943Z,9.430346
2023-10-29T06:05:52.953Z,9.430338
2023-10-29T06:06:52.774Z,9.430360
2023-10-29T06:07:52.754Z,9.430359
2023-10-29T06:08:52.792Z,9.430379
2023-10-29T06:09:52.730Z,9.430273
2023-10-29T06:10:52.749Z,9.430332
2023-10-29T06:11:52.811Z,9.430352
2023-10-29T06:12:52.693Z,9.430339
2023-10-29T06:13:52.715Z,9.430347
2023-10-29T06:14:52.763Z,9.430318
2023-10-29T06:15:52.704Z,9.430315
2023-10-29T06:16:52.727Z,9.430348
2023-10-29T06:17:52.909Z,9.430321
2023-10-29T06:18:52.663Z,9.430341
2023-10-29T06:19:52.654Z,9.430343
2023-10-29T06:20:52.668Z,9.430327
2023-10-29T06:21:52.634Z,9.430330
2023-10-29T06:22:52.627Z,9.430316
2023-10-29T06:23:52.669Z,9.430340
2023-10-29T06:24:52.590Z,9.430362
2023-10-29T06:25:52.571Z,9.430369
2023-10-29T06:26:52.647Z,9.430345
2023-10-29T06:27:52.561Z,9.430411
2023-10-29T06:28:52.560Z,9.430367
2023-10-29T06:29:52.635Z,9.430367
2023-10-29T06:30:52.565Z,9.430377
2023-10-29T06:31:52.531Z,9.430354
2023-10-29T06:32:52.576Z,9.430340
2023-10-29T06:33:52.561Z,9.430358
2023-10-29T06:34:52.487Z,9.430376
2023-10-29T06:35:52.514Z,9.430330
2023-10-29T06:36:52.970Z,9.430329
2023-10-29T06:37:52.484Z,9.430293
2023-10-29T06:38:53.054Z,9.430297
2023-10-29T06:39:52.463Z,9.430337
2023-10-29T06:40:52.445Z,9.430323
2023-10-29T06:41:52.450Z,9.430314
2023-10-29T06:42:53.276Z,9.430323
2023-10-29T06:43:52.430Z,9.430346
2023-10-29T06:44:52.443Z,9.430351
2023-10-29T06:45:52.585Z,9.430302
2023-10-29T06:46:52.445Z,9.430310
2023-10-29T06:47:52.424Z,9.430355
2023-10-29T06:48:52.343Z,9.430332
2023-10-29T06:49:52.392Z,9.430310
2023-10-29T06:50:52.350Z,9.430289
2023-10-29T06:51:52.344Z,9.430299
2023-10-29T06:52:52.369Z,9.430320
2023-10-29T06:53:52.358Z,9.430327
2023-10-29T06:54:52.284Z,9.430332
2023-10-29T06:55:52.367Z,9.430347
2023-10-29T06:56:52.406Z,9.430360
2023-10-29T06:57:52.313Z,9.430384
2023-10-29T06:58:52.264Z,9.430379
2023-10-29T06:59:52.325Z,9.430357
2023-10-29T07:00:52.301Z,9.430352
2023-10-29T07:01:52.268Z,9.430355
2023-10-29T07:02:52.366Z,9.430354
2023-10-29T07:03:52.297Z,9.430372
2023-10-29T07:04:52.227Z,9.430363
2023-10-29T07:05:52.265Z,9.430343
2023-10-29T07:06:52.198Z,9.430345
2023-10-29T07:07:52.216Z,9.430337
2023-10-29T07:08:52.215Z,9.430302
2023-10-29T07:09:52.174Z,9.430328
2023-10-29T07:10:52.152Z,9.430317
2023-10-29T07:11:52.161Z,9.430337
2023-10-29T07:12:52.150Z,9.430383
2023-10-29T07:13:52.111Z,9.430334
2023-10-29T07:14:52.145Z,9.430337
2023-10-29T07:15:52.122Z,9.430401
2023-10-29T07:16:52.094Z,9.430328
2023-10-29T07:17:52.179Z,9.430384
2023-10-29T07:18:52.087Z,9.430365
2023-10-29T07:19:52.056Z,9.430367
2023-10-29T07:20:52.058Z,9.430376
2023-10-29T07:21:52.048Z,9.430398
2023-10-29T07:22:52.085Z,9.430398
2023-10-29T07:23:52.033Z,9.430396
2023-10-29T07:24:52.029Z,9.430362
2023-10-29T07:25:51.989Z,9.430310
2023-10-29T07:26:52.031Z,9.430288
2023-10-29T07:27:52.012Z,9.430360
2023-10-29T07:28:51.994Z,9.430370
2023-10-29T07:29:52.094Z,9.430336
2023-10-29T07:30:51.980Z,9.430327
2023-10-29T07:31:51.946Z,9.430313
2023-10-29T07:32:51.978Z,9.430331
2023-10-29T07:33:51.909Z,9.430353
2023-10-29T07:34:51.946Z,9.430364
2023-10-29T07:35:51.945Z,9.430313
2023-10-29T07:36:51.886Z,9.430317
2023-10-29T07:37:51.942Z,9.430372
2023-10-29T07:38:51.937Z,9.430364
2023-10-29T07:39:51.832Z,9.430347
2023-10-29T07:40:51.845Z,9.430361
2023-10-29T07:41:51.830Z,9.430301
2023-10-29T07:42:51.833Z,9.430305
2023-10-29T07:43:51.920Z,9.430313
2023-10-29T07:44:51.812Z,9.430339
2023-10-29T07:45:51.806Z,9.430341
2023-10-29T07:46:51.800Z,9.430330
2023-10-29T07:47:51.836Z,9.430366
2023-10-29T07:48:51.759Z,9.430335
2023-10-29T07:49:51.734Z,9.430314
2023-10-29T07:50:51.826Z,9.430315
2023-10-29T07:51:51.716Z,9.430314
2023-10-29T07:52:51.777Z,9.430292
2023-10-29T07:53:52.215Z,9.430339
2023-10-29T07:54:52.971Z,9.430359
2023-10-29T07:55:51.895Z,9.430356
2023-10-29T07:56:52.110Z,9.430359
2023-10-29T07:57:51.720Z,9.430353
2023-10-29T07:58:51.708Z,9.430310
2023-10-29T07:59:51.692Z,9.430307
2023-10-29T08:00:51.657Z,9.430372
2023-10-29T08:01:51.608Z,9.430346
2023-10-29T08:02:51.686Z,9.430346
2023-10-29T08:03:52.671Z,9.430354
2023-10-29T08:04:51.597Z,9.430329
2023-10-29T08:05:51.626Z,9.430363
2023-10-29T08:06:51.548Z,9.430306
2023-10-29T08:07:51.583Z,9.430333
2023-10-29T08:08:51.600Z,9.430354
2023-10-29T08:09:51.648Z,9.430376
2023-10-29T08:10:52.481Z,9.430356
2023-10-29T08:11:51.558Z,9.430314
2023-10-29T08:12:51.485Z,9.430339
2023-10-29T08:13:51.499Z,9.430333
2023-10-29T08:14:51.589Z,9.430377
2023-10-29T08:15:51.497Z,9.430355
2023-10-29T08:16:51.484Z,9.430367
2023-10-29T08:17:51.495Z,9.430378
2023-10-29T08:18:51.453Z,9.430342
2023-10-29T08:19:51.460Z,9.430323
2023-10-29T08:20:51.443Z,9.430282
2023-10-29T08:21:51.474Z,9.430403
2023-10-29T08:22:51.465Z,9.430314
2023-10-29T08:23:51.417Z,9.430366
2023-10-29T08:24:51.384Z,9.430347
2023-10-29T08:25:51.385Z,9.430336
2023-10-29T08:26:51.420Z,9.430344
2023-10-29T08:27:51.328Z,9.430383
2023-10-29T08:28:51.331Z,9.430363
2023-10-29T08:29:51.355Z,9.430344
2023-10-29T08:30:51.333Z,9.430306
2023-10-29T08:31:51.311Z,9.430329
2023-10-29T08:32:51.584Z,9.430332
2023-10-29T08:33:51.281Z,9.430337
2023-10-29T08:34:51.307Z,9.430336
2023-10-29T08:35:51.258Z,9.430355
2023-10-29T08:36:51.265Z,9.430394
2023-10-29T08:37:51.244Z,9.430355
2023-10-29T08:38:51.285Z,9.430310
2023-10-29T08:39:51.217Z,9.430329
2023-10-29T08:40:51.262Z,9.430350
2023-10-29T08:41:51.232Z,9.430352
2023-10-29T08:42:51.173Z,9.430369
2023-10-29T08:43:51.176Z,9.430388
2023-10-29T08:44:51.452Z,9.430393
2023-10-29T08:45:51.249Z,9.430386
2023-10-29T08:46:51.184Z,9.430423
2023-10-29T08:47:53.580Z,9.430383
2023-10-29T08:48:51.943Z,9.430426
2023-10-29T08:49:51.821Z,9.430356
2023-10-29T08:50:51.083Z,9.430327
2023-10-29T08:51:51.292Z,9.430400
2023-10-29T08:52:51.079Z,9.430347
2023-10-29T08:53:51.080Z,9.430367
2023-10-29T08:54:51.058Z,9.430404
2023-10-29T08:55:51.051Z,9.430338
2023-10-29T08:56:51.124Z,9.430327
2023-10-29T08:57:51.001Z,9.430347
2023-10-29T08:58:50.985Z,9.430392
2023-10-29T08:59:51.162Z,9.430384
2023-10-29T09:00:50.978Z,9.430355
2023-10-29T09:01:50.974Z,9.430342
2023-10-29T09:02:51.029Z,9.430324
2023-10-29T09:03:51.179Z,9.430297
2023-10-29T09:04:50.929Z,9.430330
2023-10-29T09:05:50.951Z,9.430311
2023-10-29T09:06:51.905Z,9.430335
2023-10-29T09:07:55.326Z,9.430325
2023-10-29T09:08:51.166Z,9.430316
2023-10-29T09:09:50.886Z,9.430261
2023-10-29T09:10:51.219Z,9.430352
2023-10-29T09:11:51.066Z,9.430292
2023-10-29T09:12:50.914Z,9.430320
2023-10-29T09:13:50.832Z,9.430336
2023-10-29T09:14:51.041Z,9.430357
2023-10-29T09:15:50.823Z,9.430361
2023-10-29T09:16:50.893Z,9.430321
2023-10-29T09:17:50.826Z,9.430306
2023-10-29T09:18:50.809Z,9.430205
2023-10-29T09:19:51.214Z,9.430272
2023-10-29T09:20:50.776Z,9.430252
2023-10-29T09:21:50.774Z,9.430299
2023-10-29T09:22:51.283Z,9.430285
2023-10-29T09:23:50.801Z,9.430273
2023-10-29T09:24:50.765Z,9.430253
2023-10-29T09:25:50.773Z,9.430242
2023-10-29T09:26:50.694Z,9.430303
2023-10-29T09:27:51.526Z,9.430268
2023-10-29T09:28:50.686Z,9.430305
2023-10-29T09:29:50.744Z,9.430289
2023-10-29T09:30:50.650Z,9.430277
2023-10-29T09:31:50.675Z,9.430285
2023-10-29T09:32:50.686Z,9.430267
2023-10-29T09:33:50.605Z,9.430257
2023-10-29T09:34:50.590Z,9.430254
2023-10-29T09:35:50.659Z,9.430300
2023-10-29T09:36:50.710Z,9.430284
2023-10-29T09:37:50.666Z,9.430268
2023-10-29T09:38:50.606Z,9.430292
2023-10-29T09:39:50.658Z,9.430294
2023-10-29T09:40:51.945Z,9.430303
2023-10-29T09:41:50.520Z,9.430298
2023-10-29T09:42:51.408Z,9.430278
2023-10-29T09:43:50.486Z,9.430262
2023-10-29T09:44:50.578Z,9.430276
2023-10-29T09:45:51.603Z,9.430302
2023-10-29T09:46:50.465Z,9.430316
2023-10-29T09:47:50.513Z,9.430274
2023-10-29T09:48:50.744Z,9.430300
2023-10-29T09:49:50.427Z,9.430325
2023-10-29T09:50:50.494Z,9.430349
2023-10-29T09:51:50.426Z,9.430346
2023-10-29T09:52:50.376Z,9.430322
2023-10-29T09:53:50.407Z,9.430291
2023-10-29T09:54:50.634Z,9.430301
2023-10-29T09:55:50.427Z,9.430317
2023-10-29T09:56:52.422Z,9.430312
2023-10-29T09:57:55.279Z,9.430293
2023-10-29T09:58:50.325Z,9.430274
2023-10-29T09:59:50.356Z,9.430318
2023-10-29T10:00:50.296Z,9.430293
2023-10-29T10:01:58.461Z,9.430267
2023-10-29T10:02:52.511Z,9.430318
2023-10-29T10:03:50.338Z,9.430324
2023-10-29T10:04:50.478Z,9.430301
2023-10-29T10:05:50.282Z,9.430270
2023-10-29T10:06:50.335Z,9.430305
2023-10-29T10:07:52.359Z,9.430273
2023-10-29T10:08:50.221Z,9.430270
2023-10-29T10:09:50.235Z,9.430298
2023-10-29T10:10:50.189Z,9.430243
2023-10-29T10:11:50.205Z,9.430287
2023-10-29T10:12:50.175Z,9.430283
2023-10-29T10:13:50.143Z,9.430320
2023-10-29T10:14:50.275Z,9.430307
2023-10-29T10:15:50.164Z,9.430303
2023-10-29T10:16:50.117Z,9.430282
2023-10-29T10:17:50.247Z,9.430288
2023-10-29T10:18:50.106Z,9.430290
2023-10-29T10:19:50.088Z,9.430324
2023-10-29T10:20:50.125Z,9.430317
2023-10-29T10:21:50.144Z,9.430325
2023-10-29T10:22:50.079Z,9.430262
2023-10-29T10:23:50.082Z,9.430296
2023-10-29T10:24:50.478Z,9.430332
2023-10-29T10:25:50.155Z,9.430307
2023-10-29T10:26:50.093Z,9.430289
2023-10-29T10:27:50.035Z,9.430290
2023-10-29T10:28:50.059Z,9.430282
2023-10-29T10:29:49.981Z,9.430258
2023-10-29T10:30:49.967Z,9.430289
2023-10-29T10:31:50.019Z,9.430287
2023-10-29T10:32:50.024Z,9.430253
2023-10-29T10:33:49.941Z,9.430238
2023-10-29T10:34:49.979Z,9.430262
2023-10-29T10:35:49.897Z,9.430234
2023-10-29T10:36:49.893Z,9.430268
2023-10-29T10:37:49.948Z,9.430284
2023-10-29T10:38:49.897Z,9.430274
2023-10-29T10:39:49.855Z,9.430274
2023-10-29T10:40:49.834Z,9.430268
2023-10-29T10:41:49.859Z,9.430261
2023-10-29T10:42:49.835Z,9.430298
2023-10-29T10:43:49.804Z,9.430338
2023-10-29T10:44:49.932Z,9.430335
2023-10-29T10:45:49.837Z,9.430280
2023-10-29T10:46:49.837Z,9.430297
2023-10-29T10:47:49.827Z,9.430348
2023-10-29T10:48:50.343Z,9.430303
2023-10-29T10:49:49.756Z,9.430229
2023-10-29T10:50:49.786Z,9.430312
2023-10-29T10:51:49.715Z,9.430325
2023-10-29T10:52:49.854Z,9.430309
2023-10-29T10:53:49.716Z,9.430331
2023-10-29T10:54:49.847Z,9.430310
2023-10-29T10:56:02.334Z,9.430313
2023-10-29T10:56:51.759Z,9.430298
2023-10-29T10:57:49.635Z,9.430326
2023-10-29T10:58:49.672Z,9.430337
2023-10-29T10:59:51.201Z,9.430319
2023-10-29T11:00:49.733Z,9.430287
2023-10-29T11:01:49.733Z,9.430281
2023-10-29T11:02:49.720Z,9.430292
2023-10-29T11:03:49.748Z,9.430295
2023-10-29T11:04:50.252Z,9.430312
2023-10-29T11:05:49.733Z,9.430305
2023-10-29T11:06:49.541Z,9.430283
2023-10-29T11:07:49.627Z,9.430266
2023-10-29T11:08:49.578Z,9.430299
2023-10-29T11:09:50.498Z,9.430294
2023-10-29T11:10:49.817Z,9.430322
2023-10-29T11:11:49.917Z,9.430329
2023-10-29T11:12:50.626Z,9.430324
2023-10-29T11:13:50.570Z,9.430322
2023-10-29T11:14:49.639Z,9.430361
2023-10-29T11:15:49.543Z,9.430357
2023-10-29T11:16:49.485Z,9.430317
2023-10-29T11:17:49.525Z,9.430305
2023-10-29T11:18:49.770Z,9.430283
2023-10-29T11:19:49.394Z,9.430292
2023-10-29T11:20:49.729Z,9.430295
2023-10-29T11:21:49.363Z,9.430310
2023-10-29T11:22:49.342Z,9.430298
2023-10-29T11:23:49.382Z,9.430299
2023-10-29T11:24:50.097Z,9.430278
2023-10-29T11:25:49.323Z,9.430300
2023-10-29T11:26:49.316Z,9.430316
2023-10-29T11:27:49.795Z,9.430326
2023-10-29T11:28:49.284Z,9.430318
2023-10-29T11:29:49.351Z,9.430311
2023-10-29T11:30:49.331Z,9.430321
2023-10-29T11:31:49.433Z,9.430305
2023-10-29T11:32:49.341Z,9.430283
2023-10-29T11:33:49.215Z,9.430286
2023-10-29T11:34:49.348Z,9.430320
2023-10-29T11:35:49.203Z,9.430304
2023-10-29T11:36:49.264Z,9.430309
2023-10-29T11:37:50.016Z,9.430303
2023-10-29T11:38:49.291Z,9.430313
2023-10-29T11:39:49.340Z,9.430297
2023-10-29T11:40:49.219Z,9.430264
2023-10-29T11:41:49.293Z,9.430282
2023-10-29T11:42:49.172Z,9.430307
2023-10-29T11:43:49.355Z,9.430311
2023-10-29T11:44:49.361Z,9.430312